sensor_id;sensor_type;location;lat;lon;timestamp;temperature;humidity
19138;DHT22;68178;52.188;5.598;2023-06-05T00:01:28;13.40;99.90
19138;DHT22;68178;52.188;5.598;2023-06-05T00:03:54;13.10;99.90
19138;DHT22;68178;52.188;5.598;2023-06-05T00:06:20;13.10;99.90
19138;DHT22;68178;52.188;5.598;2023-06-05T00:08:45;13.20;99.90
19138;DHT22;68178;52.188;5.598;2023-06-05T00:11:11;13.10;99.90
19138;DHT22;68178;52.188;5.598;2023-06-05T00:13:36;13.30;99.90
19138;DHT22;68178;52.188;5.598;2023-06-05T00:16:02;13.20;99.90
19138;DHT22;68178;52.188;5.598;2023-06-05T00:18:29;13.00;99.90
19138;DHT22;68178;52.188;5.598;2023-06-05T00:20:55;13.10;99.90
19138;DHT22;68178;52.188;5.598;2023-06-05T00:23:21;13.00;99.90
19138;DHT22;68178;52.188;5.598;2023-06-05T00:25:46;12.90;99.90
19138;DHT22;68178;52.188;5.598;2023-06-05T00:28:12;12.70;99.90
19138;DHT22;68178;52.188;5.598;2023-06-05T00:30:37;12.80;99.90
19138;DHT22;68178;52.188;5.598;2023-06-05T00:33:04;12.90;99.90
19138;DHT22;68178;52.188;5.598;2023-06-05T00:35:30;13.00;99.90
19138;DHT22;68178;52.188;5.598;2023-06-05T00:37:55;12.70;99.90
19138;DHT22;68178;52.188;5.598;2023-06-05T00:40:21;12.80;99.90
19138;DHT22;68178;52.188;5.598;2023-06-05T00:42:47;12.70;99.90
19138;DHT22;68178;52.188;5.598;2023-06-05T00:45:12;12.70;99.90
19138;DHT22;68178;52.188;5.598;2023-06-05T00:47:38;12.70;99.90
19138;DHT22;68178;52.188;5.598;2023-06-05T00:50:06;12.70;99.90
19138;DHT22;68178;52.188;5.598;2023-06-05T00:52:33;12.70;99.90
19138;DHT22;68178;52.188;5.598;2023-06-05T00:54:59;12.60;99.90
19138;DHT22;68178;52.188;5.598;2023-06-05T00:57:27;12.60;99.90
19138;DHT22;68178;52.188;5.598;2023-06-05T00:59:53;12.60;99.90
19138;DHT22;68178;52.188;5.598;2023-06-05T01:02:20;12.50;99.90
19138;DHT22;68178;52.188;5.598;2023-06-05T01:04:46;12.60;99.90
19138;DHT22;68178;52.188;5.598;2023-06-05T01:07:13;12.50;99.90
19138;DHT22;68178;52.188;5.598;2023-06-05T01:09:40;12.60;99.90
19138;DHT22;68178;52.188;5.598;2023-06-05T01:14:51;12.40;99.90
19138;DHT22;68178;52.188;5.598;2023-06-05T01:17:25;12.40;99.90
19138;DHT22;68178;52.188;5.598;2023-06-05T01:19:51;12.40;99.90
19138;DHT22;68178;52.188;5.598;2023-06-05T01:22:17;12.40;99.90
19138;DHT22;68178;52.188;5.598;2023-06-05T01:24:43;12.40;99.90
19138;DHT22;68178;52.188;5.598;2023-06-05T01:27:22;12.30;99.90
19138;DHT22;68178;52.188;5.598;2023-06-05T01:30:03;12.30;99.90
19138;DHT22;68178;52.188;5.598;2023-06-05T01:35:04;12.30;99.90
19138;DHT22;68178;52.188;5.598;2023-06-05T01:37:34;12.20;99.90
19138;DHT22;68178;52.188;5.598;2023-06-05T01:40:03;12.10;99.90
19138;DHT22;68178;52.188;5.598;2023-06-05T01:42:31;12.10;99.90
19138;DHT22;68178;52.188;5.598;2023-06-05T01:44:57;12.20;99.90
19138;DHT22;68178;52.188;5.598;2023-06-05T01:47:24;12.10;99.90
19138;DHT22;68178;52.188;5.598;2023-06-05T01:49:50;12.20;99.90
19138;DHT22;68178;52.188;5.598;2023-06-05T01:52:15;12.10;99.90
19138;DHT22;68178;52.188;5.598;2023-06-05T01:54:41;12.10;99.90
19138;DHT22;68178;52.188;5.598;2023-06-05T01:57:07;12.10;99.90
19138;DHT22;68178;52.188;5.598;2023-06-05T01:59:34;12.10;99.90
19138;DHT22;68178;52.188;5.598;2023-06-05T02:02:00;12.10;99.90
19138;DHT22;68178;52.188;5.598;2023-06-05T02:04:26;12.00;99.90
19138;DHT22;68178;52.188;5.598;2023-06-05T02:06:53;12.00;99.90
19138;DHT22;68178;52.188;5.598;2023-06-05T02:09:18;11.90;99.90
19138;DHT22;68178;52.188;5.598;2023-06-05T02:11:45;11.90;99.90
19138;DHT22;68178;52.188;5.598;2023-06-05T02:14:13;11.90;99.90
19138;DHT22;68178;52.188;5.598;2023-06-05T02:16:41;11.90;99.90
19138;DHT22;68178;52.188;5.598;2023-06-05T02:19:07;11.80;99.90
19138;DHT22;68178;52.188;5.598;2023-06-05T02:21:33;11.80;99.90
19138;DHT22;68178;52.188;5.598;2023-06-05T02:24:05;11.70;99.90
19138;DHT22;68178;52.188;5.598;2023-06-05T02:26:32;11.70;99.90
19138;DHT22;68178;52.188;5.598;2023-06-05T02:28:57;11.70;99.90
19138;DHT22;68178;52.188;5.598;2023-06-05T02:31:24;11.80;99.90
19138;DHT22;68178;52.188;5.598;2023-06-05T02:33:52;11.70;99.90
19138;DHT22;68178;52.188;5.598;2023-06-05T02:36:17;11.60;99.90
19138;DHT22;68178;52.188;5.598;2023-06-05T02:38:43;11.70;99.90
19138;DHT22;68178;52.188;5.598;2023-06-05T02:41:08;11.60;99.90
19138;DHT22;68178;52.188;5.598;2023-06-05T02:43:34;11.60;99.90
19138;DHT22;68178;52.188;5.598;2023-06-05T02:46:00;11.50;99.90
19138;DHT22;68178;52.188;5.598;2023-06-05T02:48:25;11.60;99.90
19138;DHT22;68178;52.188;5.598;2023-06-05T02:50:51;11.70;99.90
19138;DHT22;68178;52.188;5.598;2023-06-05T02:53:16;11.50;99.90
19138;DHT22;68178;52.188;5.598;2023-06-05T02:55:42;11.50;99.90
19138;DHT22;68178;52.188;5.598;2023-06-05T02:58:08;11.40;99.90
19138;DHT22;68178;52.188;5.598;2023-06-05T03:00:34;11.60;99.90
19138;DHT22;68178;52.188;5.598;2023-06-05T03:02:59;11.50;99.90
19138;DHT22;68178;52.188;5.598;2023-06-05T03:05:26;11.50;99.90
19138;DHT22;68178;52.188;5.598;2023-06-05T03:07:52;11.40;99.90
19138;DHT22;68178;52.188;5.598;2023-06-05T03:10:21;11.40;99.90
19138;DHT22;68178;52.188;5.598;2023-06-05T03:12:47;11.40;99.90
19138;DHT22;68178;52.188;5.598;2023-06-05T03:15:13;11.40;99.90
19138;DHT22;68178;52.188;5.598;2023-06-05T03:17:39;11.40;99.90
19138;DHT22;68178;52.188;5.598;2023-06-05T03:20:05;11.50;99.90
19138;DHT22;68178;52.188;5.598;2023-06-05T03:22:34;11.60;99.90
19138;DHT22;68178;52.188;5.598;2023-06-05T03:25:00;11.40;99.90
19138;DHT22;68178;52.188;5.598;2023-06-05T03:27:26;11.40;99.90
19138;DHT22;68178;52.188;5.598;2023-06-05T03:29:51;11.30;99.90
19138;DHT22;68178;52.188;5.598;2023-06-05T03:32:17;11.30;99.90
19138;DHT22;68178;52.188;5.598;2023-06-05T03:34:43;11.30;99.90
19138;DHT22;68178;52.188;5.598;2023-06-05T03:37:08;11.40;99.90
19138;DHT22;68178;52.188;5.598;2023-06-05T03:39:34;11.40;99.90
19138;DHT22;68178;52.188;5.598;2023-06-05T03:41:59;11.40;99.90
19138;DHT22;68178;52.188;5.598;2023-06-05T03:44:26;11.30;99.90
19138;DHT22;68178;52.188;5.598;2023-06-05T03:46:51;11.40;99.90
19138;DHT22;68178;52.188;5.598;2023-06-05T03:49:17;11.40;99.90
19138;DHT22;68178;52.188;5.598;2023-06-05T03:51:43;11.40;99.90
19138;DHT22;68178;52.188;5.598;2023-06-05T03:54:10;11.40;99.90
19138;DHT22;68178;52.188;5.598;2023-06-05T03:56:38;11.40;99.90
19138;DHT22;68178;52.188;5.598;2023-06-05T03:59:08;11.40;99.90
19138;DHT22;68178;52.188;5.598;2023-06-05T04:01:45;11.30;99.90
19138;DHT22;68178;52.188;5.598;2023-06-05T04:04:10;11.30;99.90
19138;DHT22;68178;52.188;5.598;2023-06-05T04:06:36;11.30;99.90
19138;DHT22;68178;52.188;5.598;2023-06-05T04:09:03;11.40;99.90
19138;DHT22;68178;52.188;5.598;2023-06-05T04:11:35;11.40;99.90
19138;DHT22;68178;52.188;5.598;2023-06-05T04:14:01;11.50;99.90
19138;DHT22;68178;52.188;5.598;2023-06-05T04:16:26;11.40;99.90
19138;DHT22;68178;52.188;5.598;2023-06-05T04:18:52;11.30;99.90
19138;DHT22;68178;52.188;5.598;2023-06-05T04:21:17;11.40;99.90
19138;DHT22;68178;52.188;5.598;2023-06-05T04:23:43;11.40;99.90
19138;DHT22;68178;52.188;5.598;2023-06-05T04:26:09;11.50;99.90
19138;DHT22;68178;52.188;5.598;2023-06-05T04:28:34;11.60;99.90
19138;DHT22;68178;52.188;5.598;2023-06-05T04:31:00;11.60;99.90
19138;DHT22;68178;52.188;5.598;2023-06-05T04:33:27;11.50;99.90
19138;DHT22;68178;52.188;5.598;2023-06-05T04:35:52;11.60;99.90
19138;DHT22;68178;52.188;5.598;2023-06-05T04:38:18;11.70;99.90
19138;DHT22;68178;52.188;5.598;2023-06-05T04:40:47;11.70;99.90
19138;DHT22;68178;52.188;5.598;2023-06-05T04:43:14;11.80;99.90
19138;DHT22;68178;52.188;5.598;2023-06-05T04:45:39;11.80;99.90
19138;DHT22;68178;52.188;5.598;2023-06-05T04:48:05;11.90;99.90
19138;DHT22;68178;52.188;5.598;2023-06-05T04:50:31;11.90;99.90
19138;DHT22;68178;52.188;5.598;2023-06-05T04:52:59;11.80;99.90
19138;DHT22;68178;52.188;5.598;2023-06-05T04:55:24;12.00;99.90
19138;DHT22;68178;52.188;5.598;2023-06-05T04:57:51;12.10;99.90
19138;DHT22;68178;52.188;5.598;2023-06-05T05:00:18;12.00;99.90
19138;DHT22;68178;52.188;5.598;2023-06-05T05:02:45;12.00;99.90
19138;DHT22;68178;52.188;5.598;2023-06-05T05:05:10;12.20;99.90
19138;DHT22;68178;52.188;5.598;2023-06-05T05:07:42;12.20;99.90
19138;DHT22;68178;52.188;5.598;2023-06-05T05:10:08;12.40;99.90
19138;DHT22;68178;52.188;5.598;2023-06-05T05:12:35;12.40;99.90
19138;DHT22;68178;52.188;5.598;2023-06-05T05:15:02;12.40;99.90
19138;DHT22;68178;52.188;5.598;2023-06-05T05:17:29;12.70;99.90
19138;DHT22;68178;52.188;5.598;2023-06-05T05:19:55;12.70;99.90
19138;DHT22;68178;52.188;5.598;2023-06-05T05:22:21;12.80;99.90
19138;DHT22;68178;52.188;5.598;2023-06-05T05:24:46;12.90;99.90
19138;DHT22;68178;52.188;5.598;2023-06-05T05:27:12;13.00;99.90
19138;DHT22;68178;52.188;5.598;2023-06-05T05:29:37;13.10;99.90
19138;DHT22;68178;52.188;5.598;2023-06-05T05:32:03;13.10;99.90
19138;DHT22;68178;52.188;5.598;2023-06-05T05:34:29;13.10;99.90
19138;DHT22;68178;52.188;5.598;2023-06-05T05:36:54;13.10;99.90
19138;DHT22;68178;52.188;5.598;2023-06-05T05:39:20;13.20;99.90
19138;DHT22;68178;52.188;5.598;2023-06-05T05:41:46;13.30;99.90
19138;DHT22;68178;52.188;5.598;2023-06-05T05:44:11;13.40;99.90
19138;DHT22;68178;52.188;5.598;2023-06-05T05:46:37;13.30;99.90
19138;DHT22;68178;52.188;5.598;2023-06-05T05:49:02;13.40;99.90
19138;DHT22;68178;52.188;5.598;2023-06-05T05:51:28;13.60;99.90
19138;DHT22;68178;52.188;5.598;2023-06-05T05:53:53;13.60;99.90
19138;DHT22;68178;52.188;5.598;2023-06-05T05:56:19;13.70;99.90
19138;DHT22;68178;52.188;5.598;2023-06-05T05:58:45;13.60;99.90
19138;DHT22;68178;52.188;5.598;2023-06-05T06:01:10;13.80;99.90
19138;DHT22;68178;52.188;5.598;2023-06-05T06:03:38;13.90;99.90
19138;DHT22;68178;52.188;5.598;2023-06-05T06:06:04;14.00;99.90
19138;DHT22;68178;52.188;5.598;2023-06-05T06:08:36;14.00;99.90
19138;DHT22;68178;52.188;5.598;2023-06-05T06:11:01;13.90;99.90
19138;DHT22;68178;52.188;5.598;2023-06-05T06:13:32;14.20;99.90
19138;DHT22;68178;52.188;5.598;2023-06-05T06:15:59;14.10;99.90
19138;DHT22;68178;52.188;5.598;2023-06-05T06:18:24;14.30;99.90
19138;DHT22;68178;52.188;5.598;2023-06-05T06:20:51;14.40;99.90
19138;DHT22;68178;52.188;5.598;2023-06-05T06:23:16;14.50;99.90
19138;DHT22;68178;52.188;5.598;2023-06-05T06:25:42;14.40;99.90
19138;DHT22;68178;52.188;5.598;2023-06-05T06:28:07;14.70;99.90
19138;DHT22;68178;52.188;5.598;2023-06-05T06:30:33;14.80;99.90
19138;DHT22;68178;52.188;5.598;2023-06-05T06:32:58;14.80;99.90
19138;DHT22;68178;52.188;5.598;2023-06-05T06:35:25;14.90;99.90
19138;DHT22;68178;52.188;5.598;2023-06-05T06:37:53;15.10;99.90
19138;DHT22;68178;52.188;5.598;2023-06-05T06:40:20;15.10;99.90
19138;DHT22;68178;52.188;5.598;2023-06-05T06:42:46;15.20;99.90
19138;DHT22;68178;52.188;5.598;2023-06-05T06:45:11;15.20;99.90
19138;DHT22;68178;52.188;5.598;2023-06-05T06:47:37;15.40;99.90
19138;DHT22;68178;52.188;5.598;2023-06-05T06:50:04;15.50;99.90
19138;DHT22;68178;52.188;5.598;2023-06-05T06:52:30;15.50;99.90
19138;DHT22;68178;52.188;5.598;2023-06-05T06:54:55;15.60;99.90
19138;DHT22;68178;52.188;5.598;2023-06-05T06:57:21;15.60;99.90
19138;DHT22;68178;52.188;5.598;2023-06-05T06:59:47;15.70;99.90
19138;DHT22;68178;52.188;5.598;2023-06-05T07:02:18;15.80;99.90
19138;DHT22;68178;52.188;5.598;2023-06-05T07:04:45;16.10;99.90
19138;DHT22;68178;52.188;5.598;2023-06-05T07:07:12;16.30;99.90
19138;DHT22;68178;52.188;5.598;2023-06-05T07:09:39;16.40;99.90
19138;DHT22;68178;52.188;5.598;2023-06-05T07:12:05;16.40;99.90
19138;DHT22;68178;52.188;5.598;2023-06-05T07:14:32;16.50;99.90
19138;DHT22;68178;52.188;5.598;2023-06-05T07:16:59;16.80;99.90
19138;DHT22;68178;52.188;5.598;2023-06-05T07:19:26;16.80;99.90
19138;DHT22;68178;52.188;5.598;2023-06-05T07:21:53;16.90;99.90
19138;DHT22;68178;52.188;5.598;2023-06-05T07:24:18;16.90;99.90
19138;DHT22;68178;52.188;5.598;2023-06-05T07:26:44;17.10;99.90
19138;DHT22;68178;52.188;5.598;2023-06-05T07:29:10;17.30;99.90
19138;DHT22;68178;52.188;5.598;2023-06-05T07:31:36;17.30;99.90
19138;DHT22;68178;52.188;5.598;2023-06-05T07:34:02;17.50;99.90
19138;DHT22;68178;52.188;5.598;2023-06-05T07:36:28;17.60;99.90
19138;DHT22;68178;52.188;5.598;2023-06-05T07:38:54;17.70;99.90
19138;DHT22;68178;52.188;5.598;2023-06-05T07:41:20;18.00;99.90
19138;DHT22;68178;52.188;5.598;2023-06-05T07:43:46;18.00;99.90
19138;DHT22;68178;52.188;5.598;2023-06-05T07:46:12;18.00;99.90
19138;DHT22;68178;52.188;5.598;2023-06-05T07:48:37;18.10;99.90
19138;DHT22;68178;52.188;5.598;2023-06-05T07:51:03;18.20;99.90
19138;DHT22;68178;52.188;5.598;2023-06-05T07:53:29;18.30;99.90
19138;DHT22;68178;52.188;5.598;2023-06-05T07:55:54;18.20;99.90
19138;DHT22;68178;52.188;5.598;2023-06-05T07:58:21;18.40;99.90
19138;DHT22;68178;52.188;5.598;2023-06-05T08:00:47;18.50;99.90
19138;DHT22;68178;52.188;5.598;2023-06-05T08:03:16;18.50;99.90
19138;DHT22;68178;52.188;5.598;2023-06-05T08:05:49;18.40;99.90
19138;DHT22;68178;52.188;5.598;2023-06-05T08:08:15;18.60;99.90
19138;DHT22;68178;52.188;5.598;2023-06-05T08:10:41;18.60;99.90
19138;DHT22;68178;52.188;5.598;2023-06-05T08:13:10;18.50;99.90
19138;DHT22;68178;52.188;5.598;2023-06-05T08:15:36;18.80;99.90
19138;DHT22;68178;52.188;5.598;2023-06-05T08:18:02;18.90;99.90
19138;DHT22;68178;52.188;5.598;2023-06-05T08:20:28;18.70;99.90
19138;DHT22;68178;52.188;5.598;2023-06-05T08:22:57;18.80;99.90
19138;DHT22;68178;52.188;5.598;2023-06-05T08:25:26;18.90;99.90
19138;DHT22;68178;52.188;5.598;2023-06-05T08:27:52;19.00;99.90
19138;DHT22;68178;52.188;5.598;2023-06-05T08:30:19;19.00;99.90
19138;DHT22;68178;52.188;5.598;2023-06-05T08:32:44;19.10;99.90
19138;DHT22;68178;52.188;5.598;2023-06-05T08:35:11;19.10;99.90
19138;DHT22;68178;52.188;5.598;2023-06-05T08:37:37;19.20;99.90
19138;DHT22;68178;52.188;5.598;2023-06-05T08:40:03;19.30;99.90
19138;DHT22;68178;52.188;5.598;2023-06-05T08:42:36;19.50;99.90
19138;DHT22;68178;52.188;5.598;2023-06-05T08:45:07;19.60;99.90
19138;DHT22;68178;52.188;5.598;2023-06-05T08:47:35;19.60;99.90
19138;DHT22;68178;52.188;5.598;2023-06-05T08:50:03;19.70;99.90
19138;DHT22;68178;52.188;5.598;2023-06-05T08:52:33;19.70;99.90
19138;DHT22;68178;52.188;5.598;2023-06-05T08:55:02;19.80;99.90
19138;DHT22;68178;52.188;5.598;2023-06-05T08:57:28;20.00;99.90
19138;DHT22;68178;52.188;5.598;2023-06-05T08:59:56;20.10;99.90
19138;DHT22;68178;52.188;5.598;2023-06-05T09:02:22;20.20;99.90
19138;DHT22;68178;52.188;5.598;2023-06-05T09:04:47;20.30;99.90
19138;DHT22;68178;52.188;5.598;2023-06-05T09:07:15;20.20;99.90
19138;DHT22;68178;52.188;5.598;2023-06-05T09:09:43;20.40;99.90
19138;DHT22;68178;52.188;5.598;2023-06-05T09:12:08;20.40;99.90
19138;DHT22;68178;52.188;5.598;2023-06-05T09:14:34;20.40;99.90
19138;DHT22;68178;52.188;5.598;2023-06-05T09:17:02;20.50;99.90
19138;DHT22;68178;52.188;5.598;2023-06-05T09:19:37;20.60;99.90
19138;DHT22;68178;52.188;5.598;2023-06-05T09:22:05;20.60;99.90
19138;DHT22;68178;52.188;5.598;2023-06-05T09:24:31;20.40;99.90
19138;DHT22;68178;52.188;5.598;2023-06-05T09:29:31;20.50;99.90
19138;DHT22;68178;52.188;5.598;2023-06-05T09:32:01;20.70;99.90
19138;DHT22;68178;52.188;5.598;2023-06-05T09:34:35;20.70;99.90
19138;DHT22;68178;52.188;5.598;2023-06-05T09:37:06;21.00;99.90
19138;DHT22;68178;52.188;5.598;2023-06-05T09:39:34;21.10;99.90
19138;DHT22;68178;52.188;5.598;2023-06-05T09:41:59;20.90;99.90
19138;DHT22;68178;52.188;5.598;2023-06-05T09:44:27;20.90;99.90
19138;DHT22;68178;52.188;5.598;2023-06-05T09:46:58;21.00;99.90
19138;DHT22;68178;52.188;5.598;2023-06-05T09:51:52;21.50;99.90
19138;DHT22;68178;52.188;5.598;2023-06-05T09:54:19;21.50;99.90
19138;DHT22;68178;52.188;5.598;2023-06-05T09:56:49;21.50;99.90
19138;DHT22;68178;52.188;5.598;2023-06-05T09:59:18;21.60;99.90
19138;DHT22;68178;52.188;5.598;2023-06-05T10:01:45;21.70;99.90
19138;DHT22;68178;52.188;5.598;2023-06-05T10:04:13;21.70;99.90
19138;DHT22;68178;52.188;5.598;2023-06-05T10:06:42;21.90;99.90
19138;DHT22;68178;52.188;5.598;2023-06-05T10:09:08;22.00;99.90
19138;DHT22;68178;52.188;5.598;2023-06-05T10:11:38;22.20;99.90
19138;DHT22;68178;52.188;5.598;2023-06-05T10:14:04;22.20;99.90
19138;DHT22;68178;52.188;5.598;2023-06-05T10:16:30;22.20;99.90
19138;DHT22;68178;52.188;5.598;2023-06-05T10:18:57;22.00;99.90
19138;DHT22;68178;52.188;5.598;2023-06-05T10:21:23;22.10;99.90
19138;DHT22;68178;52.188;5.598;2023-06-05T10:23:56;22.10;99.90
19138;DHT22;68178;52.188;5.598;2023-06-05T10:31:51;22.50;99.90
19138;DHT22;68178;52.188;5.598;2023-06-05T10:34:42;22.60;99.90
19138;DHT22;68178;52.188;5.598;2023-06-05T10:39:48;23.00;99.90
19138;DHT22;68178;52.188;5.598;2023-06-05T10:42:28;22.90;99.90
19138;DHT22;68178;52.188;5.598;2023-06-05T10:44:55;23.20;99.90
19138;DHT22;68178;52.188;5.598;2023-06-05T10:52:46;23.20;99.90
19138;DHT22;68178;52.188;5.598;2023-06-05T10:55:12;23.40;99.90
19138;DHT22;68178;52.188;5.598;2023-06-05T10:58:12;23.60;99.90
19138;DHT22;68178;52.188;5.598;2023-06-05T11:03:55;23.80;99.90
19138;DHT22;68178;52.188;5.598;2023-06-05T11:06:22;24.10;99.90
19138;DHT22;68178;52.188;5.598;2023-06-05T11:09:09;24.20;99.90
19138;DHT22;68178;52.188;5.598;2023-06-05T11:12:00;24.20;99.90
19138;DHT22;68178;52.188;5.598;2023-06-05T11:14:47;24.20;99.90
19138;DHT22;68178;52.188;5.598;2023-06-05T11:27:51;24.70;99.90
19138;DHT22;68178;52.188;5.598;2023-06-05T11:30:22;24.70;99.90
19138;DHT22;68178;52.188;5.598;2023-06-05T11:32:49;24.90;99.90
19138;DHT22;68178;52.188;5.598;2023-06-05T11:35:21;24.80;99.90
19138;DHT22;68178;52.188;5.598;2023-06-05T11:37:46;24.80;99.90
19138;DHT22;68178;52.188;5.598;2023-06-05T11:40:24;24.90;99.90
19138;DHT22;68178;52.188;5.598;2023-06-05T11:42:50;24.70;99.90
19138;DHT22;68178;52.188;5.598;2023-06-05T11:45:15;24.70;99.90
19138;DHT22;68178;52.188;5.598;2023-06-05T11:47:41;24.90;99.90
19138;DHT22;68178;52.188;5.598;2023-06-05T11:50:11;25.00;99.90
19138;DHT22;68178;52.188;5.598;2023-06-05T11:52:37;24.90;99.90
19138;DHT22;68178;52.188;5.598;2023-06-05T11:57:48;25.10;99.30
19138;DHT22;68178;52.188;5.598;2023-06-05T12:00:15;25.20;99.90
19138;DHT22;68178;52.188;5.598;2023-06-05T12:02:42;25.30;99.90
19138;DHT22;68178;52.188;5.598;2023-06-05T12:05:10;25.60;99.90
19138;DHT22;68178;52.188;5.598;2023-06-05T12:07:37;25.70;99.90
19138;DHT22;68178;52.188;5.598;2023-06-05T12:10:08;25.70;98.60
19138;DHT22;68178;52.188;5.598;2023-06-05T12:12:35;25.60;99.90
19138;DHT22;68178;52.188;5.598;2023-06-05T12:15:16;25.80;99.90
19138;DHT22;68178;52.188;5.598;2023-06-05T12:17:52;25.80;98.80
19138;DHT22;68178;52.188;5.598;2023-06-05T12:20:19;25.90;99.40
19138;DHT22;68178;52.188;5.598;2023-06-05T12:22:45;25.70;98.90
19138;DHT22;68178;52.188;5.598;2023-06-05T12:25:21;25.70;98.30
19138;DHT22;68178;52.188;5.598;2023-06-05T12:27:49;25.90;98.50
19138;DHT22;68178;52.188;5.598;2023-06-05T12:30:16;25.90;97.80
19138;DHT22;68178;52.188;5.598;2023-06-05T12:32:43;26.10;99.60
19138;DHT22;68178;52.188;5.598;2023-06-05T12:35:20;25.80;97.10
19138;DHT22;68178;52.188;5.598;2023-06-05T12:37:47;25.90;98.40
19138;DHT22;68178;52.188;5.598;2023-06-05T12:40:14;26.00;97.90
19138;DHT22;68178;52.188;5.598;2023-06-05T12:42:40;26.20;97.30
19138;DHT22;68178;52.188;5.598;2023-06-05T12:45:09;26.20;97.50
19138;DHT22;68178;52.188;5.598;2023-06-05T12:47:37;26.30;97.00
19138;DHT22;68178;52.188;5.598;2023-06-05T12:50:04;26.40;97.40
19138;DHT22;68178;52.188;5.598;2023-06-05T12:52:31;26.40;96.70
19138;DHT22;68178;52.188;5.598;2023-06-05T12:54:57;26.30;95.20
19138;DHT22;68178;52.188;5.598;2023-06-05T12:57:23;26.20;95.50
19138;DHT22;68178;52.188;5.598;2023-06-05T12:59:51;26.30;96.70
19138;DHT22;68178;52.188;5.598;2023-06-05T13:02:17;26.40;97.70
19138;DHT22;68178;52.188;5.598;2023-06-05T13:04:42;26.50;96.40
19138;DHT22;68178;52.188;5.598;2023-06-05T13:07:08;26.50;95.80
19138;DHT22;68178;52.188;5.598;2023-06-05T13:09:37;26.60;96.90
19138;DHT22;68178;52.188;5.598;2023-06-05T13:12:02;26.60;96.50
19138;DHT22;68178;52.188;5.598;2023-06-05T13:14:29;26.90;98.10
19138;DHT22;68178;52.188;5.598;2023-06-05T13:16:56;26.90;97.40
19138;DHT22;68178;52.188;5.598;2023-06-05T13:19:25;26.80;98.10
19138;DHT22;68178;52.188;5.598;2023-06-05T13:21:51;27.00;97.40
19138;DHT22;68178;52.188;5.598;2023-06-05T13:24:17;27.00;98.90
19138;DHT22;68178;52.188;5.598;2023-06-05T13:26:43;27.20;97.30
19138;DHT22;68178;52.188;5.598;2023-06-05T13:29:09;27.00;97.60
19138;DHT22;68178;52.188;5.598;2023-06-05T13:31:35;26.90;97.50
19138;DHT22;68178;52.188;5.598;2023-06-05T13:34:01;27.00;97.40
19138;DHT22;68178;52.188;5.598;2023-06-05T13:36:27;26.80;97.50
19138;DHT22;68178;52.188;5.598;2023-06-05T13:38:52;26.70;98.80
19138;DHT22;68178;52.188;5.598;2023-06-05T13:41:18;26.70;98.30
19138;DHT22;68178;52.188;5.598;2023-06-05T13:43:44;26.80;98.10
19138;DHT22;68178;52.188;5.598;2023-06-05T13:46:10;26.80;97.30
19138;DHT22;68178;52.188;5.598;2023-06-05T13:48:35;26.70;96.60
19138;DHT22;68178;52.188;5.598;2023-06-05T13:51:03;26.70;97.50
19138;DHT22;68178;52.188;5.598;2023-06-05T13:53:29;26.50;97.60
19138;DHT22;68178;52.188;5.598;2023-06-05T13:56:09;26.70;98.70
19138;DHT22;68178;52.188;5.598;2023-06-05T13:58:34;26.60;98.30
19138;DHT22;68178;52.188;5.598;2023-06-05T14:01:00;26.40;97.80
19138;DHT22;68178;52.188;5.598;2023-06-05T14:03:27;26.30;98.30
19138;DHT22;68178;52.188;5.598;2023-06-05T14:05:52;26.40;97.90
19138;DHT22;68178;52.188;5.598;2023-06-05T14:08:18;26.30;98.80
19138;DHT22;68178;52.188;5.598;2023-06-05T14:10:44;26.40;97.70
19138;DHT22;68178;52.188;5.598;2023-06-05T14:13:11;26.30;98.10
19138;DHT22;68178;52.188;5.598;2023-06-05T14:15:36;26.40;98.20
19138;DHT22;68178;52.188;5.598;2023-06-05T14:18:03;26.30;98.00
19138;DHT22;68178;52.188;5.598;2023-06-05T14:20:29;26.00;97.80
19138;DHT22;68178;52.188;5.598;2023-06-05T14:22:58;25.80;99.60
19138;DHT22;68178;52.188;5.598;2023-06-05T14:25:25;26.00;99.70
19138;DHT22;68178;52.188;5.598;2023-06-05T14:27:54;25.80;99.20
19138;DHT22;68178;52.188;5.598;2023-06-05T14:30:20;25.80;98.10
19138;DHT22;68178;52.188;5.598;2023-06-05T14:32:46;25.60;99.60
19138;DHT22;68178;52.188;5.598;2023-06-05T14:35:12;25.60;99.80
19138;DHT22;68178;52.188;5.598;2023-06-05T14:37:37;25.40;99.30
19138;DHT22;68178;52.188;5.598;2023-06-05T14:40:04;25.30;99.90
19138;DHT22;68178;52.188;5.598;2023-06-05T14:42:30;25.20;99.90
19138;DHT22;68178;52.188;5.598;2023-06-05T14:44:56;25.20;99.90
19138;DHT22;68178;52.188;5.598;2023-06-05T14:47:21;25.20;99.90
19138;DHT22;68178;52.188;5.598;2023-06-05T14:49:48;25.10;99.90
19138;DHT22;68178;52.188;5.598;2023-06-05T14:52:14;25.20;99.90
19138;DHT22;68178;52.188;5.598;2023-06-05T14:54:40;25.10;99.90
19138;DHT22;68178;52.188;5.598;2023-06-05T14:57:08;24.90;99.90
19138;DHT22;68178;52.188;5.598;2023-06-05T14:59:34;24.70;99.90
19138;DHT22;68178;52.188;5.598;2023-06-05T15:02:00;24.50;99.90
19138;DHT22;68178;52.188;5.598;2023-06-05T15:04:25;24.30;99.90
19138;DHT22;68178;52.188;5.598;2023-06-05T15:06:51;24.10;99.90
19138;DHT22;68178;52.188;5.598;2023-06-05T15:09:19;24.10;99.90
19138;DHT22;68178;52.188;5.598;2023-06-05T15:11:44;24.00;99.90
19138;DHT22;68178;52.188;5.598;2023-06-05T15:14:10;23.90;99.90
19138;DHT22;68178;52.188;5.598;2023-06-05T15:16:36;23.70;99.90
19138;DHT22;68178;52.188;5.598;2023-06-05T15:19:01;23.70;99.90
19138;DHT22;68178;52.188;5.598;2023-06-05T15:21:27;23.60;99.90
19138;DHT22;68178;52.188;5.598;2023-06-05T15:23:53;23.60;99.90
19138;DHT22;68178;52.188;5.598;2023-06-05T15:26:18;23.50;99.90
19138;DHT22;68178;52.188;5.598;2023-06-05T15:28:44;23.50;99.90
19138;DHT22;68178;52.188;5.598;2023-06-05T15:31:09;23.40;99.90
19138;DHT22;68178;52.188;5.598;2023-06-05T15:33:35;23.40;99.90
19138;DHT22;68178;52.188;5.598;2023-06-05T15:36:01;23.30;99.90
19138;DHT22;68178;52.188;5.598;2023-06-05T15:38:26;23.30;99.90
19138;DHT22;68178;52.188;5.598;2023-06-05T15:40:52;23.30;99.90
19138;DHT22;68178;52.188;5.598;2023-06-05T15:43:17;23.10;99.90
19138;DHT22;68178;52.188;5.598;2023-06-05T15:45:43;23.00;99.90
19138;DHT22;68178;52.188;5.598;2023-06-05T15:48:10;22.80;99.90
19138;DHT22;68178;52.188;5.598;2023-06-05T15:50:36;23.00;99.90
19138;DHT22;68178;52.188;5.598;2023-06-05T15:53:02;22.70;99.90
19138;DHT22;68178;52.188;5.598;2023-06-05T15:55:28;22.60;99.90
19138;DHT22;68178;52.188;5.598;2023-06-05T15:57:53;22.50;99.90
19138;DHT22;68178;52.188;5.598;2023-06-05T16:00:21;22.40;99.90
19138;DHT22;68178;52.188;5.598;2023-06-05T16:02:47;22.30;99.90
19138;DHT22;68178;52.188;5.598;2023-06-05T16:05:13;22.30;99.90
19138;DHT22;68178;52.188;5.598;2023-06-05T16:07:38;22.20;99.90
19138;DHT22;68178;52.188;5.598;2023-06-05T16:10:05;22.20;99.90